sensor_id;sensor_type;location;lat;lon;timestamp;temperature;humidity
2861;DHT22;1438;50.922;6.704;2023-08-06T00:00:10;14.70;99.90
2861;DHT22;1438;50.922;6.704;2023-08-06T00:02:36;14.70;99.90
2861;DHT22;1438;50.922;6.704;2023-08-06T00:05:01;14.60;99.90
2861;DHT22;1438;50.922;6.704;2023-08-06T00:07:28;14.60;99.90
2861;DHT22;1438;50.922;6.704;2023-08-06T00:09:53;14.50;99.90
2861;DHT22;1438;50.922;6.704;2023-08-06T00:12:19;14.50;99.90
2861;DHT22;1438;50.922;6.704;2023-08-06T00:14:45;14.40;99.90
2861;DHT22;1438;50.922;6.704;2023-08-06T00:17:10;14.30;99.90
2861;DHT22;1438;50.922;6.704;2023-08-06T00:19:36;14.20;99.90
2861;DHT22;1438;50.922;6.704;2023-08-06T00:22:01;14.20;99.90
2861;DHT22;1438;50.922;6.704;2023-08-06T00:24:27;14.20;99.90
2861;DHT22;1438;50.922;6.704;2023-08-06T00:26:53;14.10;99.90
2861;DHT22;1438;50.922;6.704;2023-08-06T00:29:19;14.00;99.90
2861;DHT22;1438;50.922;6.704;2023-08-06T00:31:44;14.00;99.90
2861;DHT22;1438;50.922;6.704;2023-08-06T00:34:10;14.00;99.90
2861;DHT22;1438;50.922;6.704;2023-08-06T00:36:35;14.00;99.90
2861;DHT22;1438;50.922;6.704;2023-08-06T00:39:01;13.90;99.90
2861;DHT22;1438;50.922;6.704;2023-08-06T00:41:27;13.90;99.90
2861;DHT22;1438;50.922;6.704;2023-08-06T00:43:53;13.90;99.90
2861;DHT22;1438;50.922;6.704;2023-08-06T00:46:18;13.90;99.90
2861;DHT22;1438;50.922;6.704;2023-08-06T00:48:44;14.00;99.90
2861;DHT22;1438;50.922;6.704;2023-08-06T00:51:10;14.00;99.90
2861;DHT22;1438;50.922;6.704;2023-08-06T00:53:37;14.00;99.90
2861;DHT22;1438;50.922;6.704;2023-08-06T00:56:04;14.00;99.90
2861;DHT22;1438;50.922;6.704;2023-08-06T00:58:30;14.00;99.90
2861;DHT22;1438;50.922;6.704;2023-08-06T01:00:55;14.10;99.90
2861;DHT22;1438;50.922;6.704;2023-08-06T01:03:21;14.10;99.90
2861;DHT22;1438;50.922;6.704;2023-08-06T01:05:47;14.10;99.90
2861;DHT22;1438;50.922;6.704;2023-08-06T01:08:49;14.10;99.90
2861;DHT22;1438;50.922;6.704;2023-08-06T01:14:06;14.20;99.90
2861;DHT22;1438;50.922;6.704;2023-08-06T01:16:33;14.20;99.90
2861;DHT22;1438;50.922;6.704;2023-08-06T01:19:00;14.20;99.90
2861;DHT22;1438;50.922;6.704;2023-08-06T01:21:25;14.20;99.90
2861;DHT22;1438;50.922;6.704;2023-08-06T01:23:51;14.20;99.90
2861;DHT22;1438;50.922;6.704;2023-08-06T01:26:48;14.10;99.90
2861;DHT22;1438;50.922;6.704;2023-08-06T01:29:25;14.10;99.90
2861;DHT22;1438;50.922;6.704;2023-08-06T01:31:55;14.10;99.90
2861;DHT22;1438;50.922;6.704;2023-08-06T01:34:23;14.10;99.90
2861;DHT22;1438;50.922;6.704;2023-08-06T01:36:50;14.10;99.90
2861;DHT22;1438;50.922;6.704;2023-08-06T01:39:16;14.10;99.90
2861;DHT22;1438;50.922;6.704;2023-08-06T01:41:42;14.10;99.90
2861;DHT22;1438;50.922;6.704;2023-08-06T01:44:08;14.10;99.90
2861;DHT22;1438;50.922;6.704;2023-08-06T01:46:33;14.10;99.90
2861;DHT22;1438;50.922;6.704;2023-08-06T01:48:59;14.10;99.90
2861;DHT22;1438;50.922;6.704;2023-08-06T01:51:24;14.10;99.90
2861;DHT22;1438;50.922;6.704;2023-08-06T01:53:50;14.10;99.90
2861;DHT22;1438;50.922;6.704;2023-08-06T01:56:15;14.10;99.90
2861;DHT22;1438;50.922;6.704;2023-08-06T01:58:41;14.10;99.90
2861;DHT22;1438;50.922;6.704;2023-08-06T02:01:06;14.10;99.90
2861;DHT22;1438;50.922;6.704;2023-08-06T02:03:32;14.10;99.90
2861;DHT22;1438;50.922;6.704;2023-08-06T02:05:58;14.10;99.90
2861;DHT22;1438;50.922;6.704;2023-08-06T02:08:23;14.10;99.90
2861;DHT22;1438;50.922;6.704;2023-08-06T02:10:49;14.10;99.90
2861;DHT22;1438;50.922;6.704;2023-08-06T02:13:14;14.10;99.90
2861;DHT22;1438;50.922;6.704;2023-08-06T02:15:43;14.10;99.90
2861;DHT22;1438;50.922;6.704;2023-08-06T02:18:09;14.10;99.90
2861;DHT22;1438;50.922;6.704;2023-08-06T02:20:35;14.10;99.90
2861;DHT22;1438;50.922;6.704;2023-08-06T02:23:00;14.10;99.90
2861;DHT22;1438;50.922;6.704;2023-08-06T02:25:26;14.20;99.90
2861;DHT22;1438;50.922;6.704;2023-08-06T02:27:52;14.20;99.90
2861;DHT22;1438;50.922;6.704;2023-08-06T02:30:17;14.20;99.90
2861;DHT22;1438;50.922;6.704;2023-08-06T02:32:43;14.20;99.90
2861;DHT22;1438;50.922;6.704;2023-08-06T02:35:08;14.20;99.90
2861;DHT22;1438;50.922;6.704;2023-08-06T02:37:34;14.20;99.90
2861;DHT22;1438;50.922;6.704;2023-08-06T02:40:00;14.20;99.90
2861;DHT22;1438;50.922;6.704;2023-08-06T02:42:26;14.20;99.90
2861;DHT22;1438;50.922;6.704;2023-08-06T02:44:52;14.20;99.90
2861;DHT22;1438;50.922;6.704;2023-08-06T02:47:20;14.20;99.90
2861;DHT22;1438;50.922;6.704;2023-08-06T02:49:46;14.20;99.90
2861;DHT22;1438;50.922;6.704;2023-08-06T02:52:12;14.20;99.90
2861;DHT22;1438;50.922;6.704;2023-08-06T02:54:37;14.20;99.90
2861;DHT22;1438;50.922;6.704;2023-08-06T02:57:04;14.10;99.90
2861;DHT22;1438;50.922;6.704;2023-08-06T02:59:30;14.20;99.90
2861;DHT22;1438;50.922;6.704;2023-08-06T03:01:56;14.20;99.90
2861;DHT22;1438;50.922;6.704;2023-08-06T03:04:21;14.20;99.90
2861;DHT22;1438;50.922;6.704;2023-08-06T03:06:47;14.20;99.90
2861;DHT22;1438;50.922;6.704;2023-08-06T03:09:14;14.20;99.90
2861;DHT22;1438;50.922;6.704;2023-08-06T03:11:40;14.20;99.90
2861;DHT22;1438;50.922;6.704;2023-08-06T03:14:05;14.20;99.90
2861;DHT22;1438;50.922;6.704;2023-08-06T03:16:31;14.20;99.90
2861;DHT22;1438;50.922;6.704;2023-08-06T03:18:56;14.20;99.90
2861;DHT22;1438;50.922;6.704;2023-08-06T03:21:22;14.20;99.90
2861;DHT22;1438;50.922;6.704;2023-08-06T03:23:47;14.30;99.90
2861;DHT22;1438;50.922;6.704;2023-08-06T03:26:14;14.20;99.90
2861;DHT22;1438;50.922;6.704;2023-08-06T03:28:39;14.20;99.90
2861;DHT22;1438;50.922;6.704;2023-08-06T03:31:06;14.30;99.90
2861;DHT22;1438;50.922;6.704;2023-08-06T03:33:31;14.30;99.90
2861;DHT22;1438;50.922;6.704;2023-08-06T03:35:57;14.30;99.90
2861;DHT22;1438;50.922;6.704;2023-08-06T03:38:23;14.30;99.90
2861;DHT22;1438;50.922;6.704;2023-08-06T03:40:49;14.20;99.90
2861;DHT22;1438;50.922;6.704;2023-08-06T03:43:15;14.20;99.90
2861;DHT22;1438;50.922;6.704;2023-08-06T03:45:41;14.30;99.90
2861;DHT22;1438;50.922;6.704;2023-08-06T03:48:07;14.30;99.90
2861;DHT22;1438;50.922;6.704;2023-08-06T03:50:33;14.20;99.90
2861;DHT22;1438;50.922;6.704;2023-08-06T03:52:58;14.20;99.90
2861;DHT22;1438;50.922;6.704;2023-08-06T03:55:24;14.30;99.90
2861;DHT22;1438;50.922;6.704;2023-08-06T03:57:50;14.30;99.90
2861;DHT22;1438;50.922;6.704;2023-08-06T04:00:15;14.30;99.90
2861;DHT22;1438;50.922;6.704;2023-08-06T04:02:41;14.30;99.90
2861;DHT22;1438;50.922;6.704;2023-08-06T04:05:07;14.30;99.90
2861;DHT22;1438;50.922;6.704;2023-08-06T04:07:33;14.30;99.90
2861;DHT22;1438;50.922;6.704;2023-08-06T04:10:00;14.30;99.90
2861;DHT22;1438;50.922;6.704;2023-08-06T04:12:26;14.30;99.90
2861;DHT22;1438;50.922;6.704;2023-08-06T04:14:52;14.30;99.90
2861;DHT22;1438;50.922;6.704;2023-08-06T04:17:19;14.30;99.90
2861;DHT22;1438;50.922;6.704;2023-08-06T04:19:52;14.30;99.90
2861;DHT22;1438;50.922;6.704;2023-08-06T04:22:18;14.30;99.90
2861;DHT22;1438;50.922;6.704;2023-08-06T04:24:44;14.30;99.90
2861;DHT22;1438;50.922;6.704;2023-08-06T04:27:10;14.30;99.90
2861;DHT22;1438;50.922;6.704;2023-08-06T04:29:36;14.30;99.90
2861;DHT22;1438;50.922;6.704;2023-08-06T04:32:03;14.30;99.90
2861;DHT22;1438;50.922;6.704;2023-08-06T04:34:29;14.30;99.90
2861;DHT22;1438;50.922;6.704;2023-08-06T04:36:55;14.40;99.90
2861;DHT22;1438;50.922;6.704;2023-08-06T04:39:20;14.40;99.90
2861;DHT22;1438;50.922;6.704;2023-08-06T04:41:46;14.40;99.90
2861;DHT22;1438;50.922;6.704;2023-08-06T04:44:11;14.40;99.90
2861;DHT22;1438;50.922;6.704;2023-08-06T04:46:37;14.40;99.90
2861;DHT22;1438;50.922;6.704;2023-08-06T04:49:02;14.40;99.90
2861;DHT22;1438;50.922;6.704;2023-08-06T04:51:28;14.50;99.90
2861;DHT22;1438;50.922;6.704;2023-08-06T04:53:53;14.40;99.90
2861;DHT22;1438;50.922;6.704;2023-08-06T04:56:19;14.50;99.90
2861;DHT22;1438;50.922;6.704;2023-08-06T04:58:45;14.50;99.90
2861;DHT22;1438;50.922;6.704;2023-08-06T05:01:10;14.50;99.90
2861;DHT22;1438;50.922;6.704;2023-08-06T05:03:36;14.60;99.90
2861;DHT22;1438;50.922;6.704;2023-08-06T05:06:01;14.70;99.90
2861;DHT22;1438;50.922;6.704;2023-08-06T05:08:27;14.80;99.90
2861;DHT22;1438;50.922;6.704;2023-08-06T05:10:52;14.90;99.90
2861;DHT22;1438;50.922;6.704;2023-08-06T05:13:18;14.90;99.90
2861;DHT22;1438;50.922;6.704;2023-08-06T05:15:43;15.00;99.90
2861;DHT22;1438;50.922;6.704;2023-08-06T05:18:11;15.00;99.90
2861;DHT22;1438;50.922;6.704;2023-08-06T05:20:38;15.10;99.90
2861;DHT22;1438;50.922;6.704;2023-08-06T05:23:03;15.20;99.90
2861;DHT22;1438;50.922;6.704;2023-08-06T05:25:30;15.10;99.90
2861;DHT22;1438;50.922;6.704;2023-08-06T05:27:55;15.20;99.90
2861;DHT22;1438;50.922;6.704;2023-08-06T05:30:21;15.20;99.90
2861;DHT22;1438;50.922;6.704;2023-08-06T05:32:46;15.20;99.90
2861;DHT22;1438;50.922;6.704;2023-08-06T05:35:12;15.10;99.90
2861;DHT22;1438;50.922;6.704;2023-08-06T05:37:38;15.10;99.90
2861;DHT22;1438;50.922;6.704;2023-08-06T05:40:04;15.10;99.90
2861;DHT22;1438;50.922;6.704;2023-08-06T05:42:30;15.10;99.90
2861;DHT22;1438;50.922;6.704;2023-08-06T05:44:55;15.10;99.90
2861;DHT22;1438;50.922;6.704;2023-08-06T05:47:21;15.10;99.90
2861;DHT22;1438;50.922;6.704;2023-08-06T05:49:46;15.00;99.90
2861;DHT22;1438;50.922;6.704;2023-08-06T05:52:12;15.00;99.90
2861;DHT22;1438;50.922;6.704;2023-08-06T05:54:38;15.00;99.90
2861;DHT22;1438;50.922;6.704;2023-08-06T05:57:04;14.90;99.90
2861;DHT22;1438;50.922;6.704;2023-08-06T05:59:29;14.90;99.90
2861;DHT22;1438;50.922;6.704;2023-08-06T06:01:55;14.90;99.90
2861;DHT22;1438;50.922;6.704;2023-08-06T06:04:21;14.90;99.90
2861;DHT22;1438;50.922;6.704;2023-08-06T06:06:47;14.80;99.90
2861;DHT22;1438;50.922;6.704;2023-08-06T06:09:13;14.80;99.90
2861;DHT22;1438;50.922;6.704;2023-08-06T06:11:38;14.70;99.90
2861;DHT22;1438;50.922;6.704;2023-08-06T06:14:04;14.70;99.90
2861;DHT22;1438;50.922;6.704;2023-08-06T06:16:30;14.70;99.90
2861;DHT22;1438;50.922;6.704;2023-08-06T06:18:55;14.70;99.90
2861;DHT22;1438;50.922;6.704;2023-08-06T06:21:23;14.70;99.90
2861;DHT22;1438;50.922;6.704;2023-08-06T06:23:49;14.70;99.90
2861;DHT22;1438;50.922;6.704;2023-08-06T06:26:14;14.80;99.90
2861;DHT22;1438;50.922;6.704;2023-08-06T06:28:40;14.70;99.90
2861;DHT22;1438;50.922;6.704;2023-08-06T06:31:05;14.70;99.90
2861;DHT22;1438;50.922;6.704;2023-08-06T06:33:31;14.60;99.90
2861;DHT22;1438;50.922;6.704;2023-08-06T06:35:57;14.60;99.90
2861;DHT22;1438;50.922;6.704;2023-08-06T06:38:22;14.60;99.90
2861;DHT22;1438;50.922;6.704;2023-08-06T06:41:06;14.50;99.90
2861;DHT22;1438;50.922;6.704;2023-08-06T06:43:32;14.60;99.90
2861;DHT22;1438;50.922;6.704;2023-08-06T06:46:00;14.60;99.90
2861;DHT22;1438;50.922;6.704;2023-08-06T06:48:28;14.60;99.90
2861;DHT22;1438;50.922;6.704;2023-08-06T06:50:55;14.70;99.90
2861;DHT22;1438;50.922;6.704;2023-08-06T06:53:21;14.60;99.90
2861;DHT22;1438;50.922;6.704;2023-08-06T06:55:55;14.80;99.90
2861;DHT22;1438;50.922;6.704;2023-08-06T06:58:21;14.70;99.90
2861;DHT22;1438;50.922;6.704;2023-08-06T07:00:47;14.70;99.90
2861;DHT22;1438;50.922;6.704;2023-08-06T07:03:14;14.80;99.90
2861;DHT22;1438;50.922;6.704;2023-08-06T07:05:40;14.90;99.90
2861;DHT22;1438;50.922;6.704;2023-08-06T07:08:05;14.80;99.90
2861;DHT22;1438;50.922;6.704;2023-08-06T07:10:31;14.80;99.90
2861;DHT22;1438;50.922;6.704;2023-08-06T07:12:57;14.90;99.90
2861;DHT22;1438;50.922;6.704;2023-08-06T07:15:22;14.90;99.90
2861;DHT22;1438;50.922;6.704;2023-08-06T07:17:48;14.90;99.90
2861;DHT22;1438;50.922;6.704;2023-08-06T07:20:13;14.90;99.90
2861;DHT22;1438;50.922;6.704;2023-08-06T07:22:39;14.90;99.90
2861;DHT22;1438;50.922;6.704;2023-08-06T07:25:05;15.00;99.90
2861;DHT22;1438;50.922;6.704;2023-08-06T07:27:30;15.00;99.90
2861;DHT22;1438;50.922;6.704;2023-08-06T07:29:57;15.00;99.90
2861;DHT22;1438;50.922;6.704;2023-08-06T07:32:23;15.00;99.90
2861;DHT22;1438;50.922;6.704;2023-08-06T07:34:49;15.00;99.90
2861;DHT22;1438;50.922;6.704;2023-08-06T07:37:15;15.00;99.90
2861;DHT22;1438;50.922;6.704;2023-08-06T07:39:40;15.10;99.90
2861;DHT22;1438;50.922;6.704;2023-08-06T07:42:07;15.00;99.90
2861;DHT22;1438;50.922;6.704;2023-08-06T07:44:33;15.00;99.90
2861;DHT22;1438;50.922;6.704;2023-08-06T07:46:58;15.00;99.90
2861;DHT22;1438;50.922;6.704;2023-08-06T07:49:24;15.10;99.90
2861;DHT22;1438;50.922;6.704;2023-08-06T07:51:50;15.00;99.90
2861;DHT22;1438;50.922;6.704;2023-08-06T07:54:17;15.00;99.90
2861;DHT22;1438;50.922;6.704;2023-08-06T07:56:42;15.00;99.90
2861;DHT22;1438;50.922;6.704;2023-08-06T07:59:08;15.10;99.90
2861;DHT22;1438;50.922;6.704;2023-08-06T08:01:34;15.10;99.90
2861;DHT22;1438;50.922;6.704;2023-08-06T08:04:00;15.10;99.90
2861;DHT22;1438;50.922;6.704;2023-08-06T08:06:25;15.20;99.90
2861;DHT22;1438;50.922;6.704;2023-08-06T08:08:51;15.20;99.90
2861;DHT22;1438;50.922;6.704;2023-08-06T08:11:17;15.30;99.90
2861;DHT22;1438;50.922;6.704;2023-08-06T08:13:44;15.30;99.90
2861;DHT22;1438;50.922;6.704;2023-08-06T08:16:09;15.40;99.90
2861;DHT22;1438;50.922;6.704;2023-08-06T08:18:35;15.60;99.90
2861;DHT22;1438;50.922;6.704;2023-08-06T08:21:00;15.60;99.90
2861;DHT22;1438;50.922;6.704;2023-08-06T08:23:26;15.60;99.90
2861;DHT22;1438;50.922;6.704;2023-08-06T08:25:52;15.60;99.90
2861;DHT22;1438;50.922;6.704;2023-08-06T08:28:17;15.60;99.90
2861;DHT22;1438;50.922;6.704;2023-08-06T08:30:43;15.70;99.90
2861;DHT22;1438;50.922;6.704;2023-08-06T08:33:08;15.60;99.90
2861;DHT22;1438;50.922;6.704;2023-08-06T08:35:35;15.60;99.90
2861;DHT22;1438;50.922;6.704;2023-08-06T08:38:01;15.70;99.90
2861;DHT22;1438;50.922;6.704;2023-08-06T08:40:31;15.70;99.90
2861;DHT22;1438;50.922;6.704;2023-08-06T08:42:57;15.70;99.90
2861;DHT22;1438;50.922;6.704;2023-08-06T08:45:26;15.70;99.90
2861;DHT22;1438;50.922;6.704;2023-08-06T08:47:54;15.70;99.90
2861;DHT22;1438;50.922;6.704;2023-08-06T08:50:20;15.70;99.90
2861;DHT22;1438;50.922;6.704;2023-08-06T08:52:46;15.80;99.90
2861;DHT22;1438;50.922;6.704;2023-08-06T08:55:15;15.80;99.90
2861;DHT22;1438;50.922;6.704;2023-08-06T08:57:41;15.90;99.90
2861;DHT22;1438;50.922;6.704;2023-08-06T09:00:07;15.90;99.90
2861;DHT22;1438;50.922;6.704;2023-08-06T09:02:33;16.00;99.90
2861;DHT22;1438;50.922;6.704;2023-08-06T09:05:03;16.20;99.90
2861;DHT22;1438;50.922;6.704;2023-08-06T09:07:35;16.30;99.90
2861;DHT22;1438;50.922;6.704;2023-08-06T09:10:03;16.40;99.90
2861;DHT22;1438;50.922;6.704;2023-08-06T09:12:30;16.50;99.90
2861;DHT22;1438;50.922;6.704;2023-08-06T09:14:55;16.50;99.90
2861;DHT22;1438;50.922;6.704;2023-08-06T09:17:21;16.50;99.90
2861;DHT22;1438;50.922;6.704;2023-08-06T09:19:47;16.40;99.90
2861;DHT22;1438;50.922;6.704;2023-08-06T09:22:14;16.30;99.90
2861;DHT22;1438;50.922;6.704;2023-08-06T09:24:41;16.30;99.90
2861;DHT22;1438;50.922;6.704;2023-08-06T09:27:15;16.20;99.90
2861;DHT22;1438;50.922;6.704;2023-08-06T09:29:43;16.00;99.90
2861;DHT22;1438;50.922;6.704;2023-08-06T09:32:08;15.80;99.90
2861;DHT22;1438;50.922;6.704;2023-08-06T09:34:34;15.60;99.90
2861;DHT22;1438;50.922;6.704;2023-08-06T09:37:00;15.40;99.90
2861;DHT22;1438;50.922;6.704;2023-08-06T09:39:30;15.20;99.90
2861;DHT22;1438;50.922;6.704;2023-08-06T09:41:58;15.00;99.90
2861;DHT22;1438;50.922;6.704;2023-08-06T09:44:25;14.90;99.90
2861;DHT22;1438;50.922;6.704;2023-08-06T09:46:52;14.80;99.90
2861;DHT22;1438;50.922;6.704;2023-08-06T09:49:19;14.60;99.90
2861;DHT22;1438;50.922;6.704;2023-08-06T09:51:46;14.50;99.90
2861;DHT22;1438;50.922;6.704;2023-08-06T09:54:16;14.40;99.90
2861;DHT22;1438;50.922;6.704;2023-08-06T09:56:42;14.20;99.90
2861;DHT22;1438;50.922;6.704;2023-08-06T09:59:08;14.10;99.90
2861;DHT22;1438;50.922;6.704;2023-08-06T10:01:35;14.10;99.90
2861;DHT22;1438;50.922;6.704;2023-08-06T10:04:05;14.00;99.90
2861;DHT22;1438;50.922;6.704;2023-08-06T10:06:36;13.90;99.90
2861;DHT22;1438;50.922;6.704;2023-08-06T10:09:02;13.90;99.90
2861;DHT22;1438;50.922;6.704;2023-08-06T10:11:29;13.90;99.90
2861;DHT22;1438;50.922;6.704;2023-08-06T10:14:04;13.90;99.90
2861;DHT22;1438;50.922;6.704;2023-08-06T10:16:31;13.70;99.90
2861;DHT22;1438;50.922;6.704;2023-08-06T10:18:58;13.60;99.90
2861;DHT22;1438;50.922;6.704;2023-08-06T10:21:24;13.60;99.90
2861;DHT22;1438;50.922;6.704;2023-08-06T10:23:55;13.50;99.90
2861;DHT22;1438;50.922;6.704;2023-08-06T10:26:28;13.40;99.90
2861;DHT22;1438;50.922;6.704;2023-08-06T10:28:54;13.50;99.90
2861;DHT22;1438;50.922;6.704;2023-08-06T10:31:51;13.50;99.90
2861;DHT22;1438;50.922;6.704;2023-08-06T10:34:06;13.50;99.90
2861;DHT22;1438;50.922;6.704;2023-08-06T10:36:32;13.50;99.90
2861;DHT22;1438;50.922;6.704;2023-08-06T10:38:58;13.40;99.90
2861;DHT22;1438;50.922;6.704;2023-08-06T10:41:27;13.40;99.90
2861;DHT22;1438;50.922;6.704;2023-08-06T10:44:05;13.50;99.90
2861;DHT22;1438;50.922;6.704;2023-08-06T10:46:32;13.50;99.90
2861;DHT22;1438;50.922;6.704;2023-08-06T10:48:58;13.50;99.90
2861;DHT22;1438;50.922;6.704;2023-08-06T10:51:25;13.50;99.90
2861;DHT22;1438;50.922;6.704;2023-08-06T10:53:51;13.50;99.90
2861;DHT22;1438;50.922;6.704;2023-08-06T10:56:18;13.40;99.90
2861;DHT22;1438;50.922;6.704;2023-08-06T10:58:45;13.50;99.90
2861;DHT22;1438;50.922;6.704;2023-08-06T11:01:11;13.50;99.90
2861;DHT22;1438;50.922;6.704;2023-08-06T11:03:37;13.50;99.90
2861;DHT22;1438;50.922;6.704;2023-08-06T11:06:04;13.40;99.90
2861;DHT22;1438;50.922;6.704;2023-08-06T11:08:34;13.40;99.90
2861;DHT22;1438;50.922;6.704;2023-08-06T11:11:14;13.40;99.90
2861;DHT22;1438;50.922;6.704;2023-08-06T11:13:43;13.50;99.90
2861;DHT22;1438;50.922;6.704;2023-08-06T11:16:30;13.50;99.90
2861;DHT22;1438;50.922;6.704;2023-08-06T11:18:55;13.50;99.90
2861;DHT22;1438;50.922;6.704;2023-08-06T11:21:23;13.50;99.90
2861;DHT22;1438;50.922;6.704;2023-08-06T11:23:51;13.60;99.90
2861;DHT22;1438;50.922;6.704;2023-08-06T11:26:20;13.60;99.90
2861;DHT22;1438;50.922;6.704;2023-08-06T11:28:45;13.60;99.90
2861;DHT22;1438;50.922;6.704;2023-08-06T11:31:22;13.70;99.90
2861;DHT22;1438;50.922;6.704;2023-08-06T11:33:50;13.70;99.90
2861;DHT22;1438;50.922;6.704;2023-08-06T11:36:16;13.70;99.90
2861;DHT22;1438;50.922;6.704;2023-08-06T11:38:41;13.70;99.90
2861;DHT22;1438;50.922;6.704;2023-08-06T11:41:07;13.80;99.90
2861;DHT22;1438;50.922;6.704;2023-08-06T11:43:32;13.80;99.90
2861;DHT22;1438;50.922;6.704;2023-08-06T11:45:58;13.80;99.90
2861;DHT22;1438;50.922;6.704;2023-08-06T11:48:25;13.80;99.90
2861;DHT22;1438;50.922;6.704;2023-08-06T11:50:54;13.90;99.90
2861;DHT22;1438;50.922;6.704;2023-08-06T11:53:19;14.00;99.90
2861;DHT22;1438;50.922;6.704;2023-08-06T11:55:45;14.10;99.90
2861;DHT22;1438;50.922;6.704;2023-08-06T11:58:11;14.10;99.90
2861;DHT22;1438;50.922;6.704;2023-08-06T12:00:40;14.20;99.90
2861;DHT22;1438;50.922;6.704;2023-08-06T12:03:05;14.20;99.90
2861;DHT22;1438;50.922;6.704;2023-08-06T12:05:31;14.20;99.90
2861;DHT22;1438;50.922;6.704;2023-08-06T12:08:02;14.20;99.90
2861;DHT22;1438;50.922;6.704;2023-08-06T12:10:30;14.20;99.90
2861;DHT22;1438;50.922;6.704;2023-08-06T12:12:56;14.20;99.90
2861;DHT22;1438;50.922;6.704;2023-08-06T12:15:22;14.20;99.90
2861;DHT22;1438;50.922;6.704;2023-08-06T12:17:47;14.30;99.90
2861;DHT22;1438;50.922;6.704;2023-08-06T12:20:13;14.30;99.90
2861;DHT22;1438;50.922;6.704;2023-08-06T12:22:39;14.40;99.90
2861;DHT22;1438;50.922;6.704;2023-08-06T12:25:07;14.50;99.90
2861;DHT22;1438;50.922;6.704;2023-08-06T12:27:36;14.60;99.90
2861;DHT22;1438;50.922;6.704;2023-08-06T12:30:03;14.60;99.90
2861;DHT22;1438;50.922;6.704;2023-08-06T12:32:29;14.60;99.90
2861;DHT22;1438;50.922;6.704;2023-08-06T12:34:55;14.60;99.90
2861;DHT22;1438;50.922;6.704;2023-08-06T12:37:20;14.50;99.90
2861;DHT22;1438;50.922;6.704;2023-08-06T12:39:46;14.60;99.90
2861;DHT22;1438;50.922;6.704;2023-08-06T12:42:12;14.60;99.90
2861;DHT22;1438;50.922;6.704;2023-08-06T12:44:37;14.60;99.90
2861;DHT22;1438;50.922;6.704;2023-08-06T12:47:03;14.60;99.90
2861;DHT22;1438;50.922;6.704;2023-08-06T12:49:29;14.60;99.90
2861;DHT22;1438;50.922;6.704;2023-08-06T12:51:56;14.60;99.90
2861;DHT22;1438;50.922;6.704;2023-08-06T12:54:22;14.60;99.90
2861;DHT22;1438;50.922;6.704;2023-08-06T12:56:48;14.50;99.90
2861;DHT22;1438;50.922;6.704;2023-08-06T12:59:15;14.60;99.90
2861;DHT22;1438;50.922;6.704;2023-08-06T13:01:41;14.60;99.90
2861;DHT22;1438;50.922;6.704;2023-08-06T13:04:07;14.60;99.90
2861;DHT22;1438;50.922;6.704;2023-08-06T13:06:32;14.60;99.90
2861;DHT22;1438;50.922;6.704;2023-08-06T13:09:06;14.60;99.90
2861;DHT22;1438;50.922;6.704;2023-08-06T13:11:32;14.60;99.90
2861;DHT22;1438;50.922;6.704;2023-08-06T13:14:25;14.60;99.90
2861;DHT22;1438;50.922;6.704;2023-08-06T13:16:50;14.60;99.90
2861;DHT22;1438;50.922;6.704;2023-08-06T13:19:16;14.60;99.90
2861;DHT22;1438;50.922;6.704;2023-08-06T13:24:08;14.70;99.90
2861;DHT22;1438;50.922;6.704;2023-08-06T13:26:33;14.70;99.90
2861;DHT22;1438;50.922;6.704;2023-08-06T13:29:00;14.80;99.90
2861;DHT22;1438;50.922;6.704;2023-08-06T13:31:26;14.80;99.90
2861;DHT22;1438;50.922;6.704;2023-08-06T13:33:53;15.00;99.90
2861;DHT22;1438;50.922;6.704;2023-08-06T13:36:21;15.10;99.90
2861;DHT22;1438;50.922;6.704;2023-08-06T13:38:47;15.10;99.90
2861;DHT22;1438;50.922;6.704;2023-08-06T13:41:12;15.20;99.90
2861;DHT22;1438;50.922;6.704;2023-08-06T13:43:38;15.30;99.90
2861;DHT22;1438;50.922;6.704;2023-08-06T13:46:04;15.40;99.90
2861;DHT22;1438;50.922;6.704;2023-08-06T13:48:30;15.50;99.90
2861;DHT22;1438;50.922;6.704;2023-08-06T13:50:56;15.60;99.90
2861;DHT22;1438;50.922;6.704;2023-08-06T13:53:21;15.60;99.90
2861;DHT22;1438;50.922;6.704;2023-08-06T13:55:47;15.50;99.90
2861;DHT22;1438;50.922;6.704;2023-08-06T13:58:12;15.30;99.90
2861;DHT22;1438;50.922;6.704;2023-08-06T14:00:38;15.20;99.90
2861;DHT22;1438;50.922;6.704;2023-08-06T14:03:03;15.10;99.90
2861;DHT22;1438;50.922;6.704;2023-08-06T14:05:29;15.10;99.90
2861;DHT22;1438;50.922;6.704;2023-08-06T14:07:55;15.00;99.90
2861;DHT22;1438;50.922;6.704;2023-08-06T14:10:20;15.00;99.90
2861;DHT22;1438;50.922;6.704;2023-08-06T14:12:46;15.10;99.90
2861;DHT22;1438;50.922;6.704;2023-08-06T14:15:11;15.00;99.90
2861;DHT22;1438;50.922;6.704;2023-08-06T14:17:37;15.10;99.90
2861;DHT22;1438;50.922;6.704;2023-08-06T14:20:04;15.20;99.90
2861;DHT22;1438;50.922;6.704;2023-08-06T14:22:30;15.20;99.90
2861;DHT22;1438;50.922;6.704;2023-08-06T14:24:57;15.30;99.90
2861;DHT22;1438;50.922;6.704;2023-08-06T14:27:23;15.50;99.90
2861;DHT22;1438;50.922;6.704;2023-08-06T14:29:49;15.50;99.90
2861;DHT22;1438;50.922;6.704;2023-08-06T14:32:14;15.70;99.90
2861;DHT22;1438;50.922;6.704;2023-08-06T14:34:43;15.80;99.90
2861;DHT22;1438;50.922;6.704;2023-08-06T14:37:09;15.80;99.90
2861;DHT22;1438;50.922;6.704;2023-08-06T14:39:35;15.90;99.90
2861;DHT22;1438;50.922;6.704;2023-08-06T14:42:01;15.90;99.90
2861;DHT22;1438;50.922;6.704;2023-08-06T14:44:27;16.00;99.90
2861;DHT22;1438;50.922;6.704;2023-08-06T14:46:53;16.20;99.90
2861;DHT22;1438;50.922;6.704;2023-08-06T14:49:18;16.20;99.90
2861;DHT22;1438;50.922;6.704;2023-08-06T14:51:44;16.30;99.90
2861;DHT22;1438;50.922;6.704;2023-08-06T14:54:09;16.30;99.90
2861;DHT22;1438;50.922;6.704;2023-08-06T14:56:35;16.20;99.90
2861;DHT22;1438;50.922;6.704;2023-08-06T14:59:00;16.10;99.90
2861;DHT22;1438;50.922;6.704;2023-08-06T15:01:26;16.20;99.90
2861;DHT22;1438;50.922;6.704;2023-08-06T15:03:52;16.10;99.90
2861;DHT22;1438;50.922;6.704;2023-08-06T15:06:17;16.00;99.90
2861;DHT22;1438;50.922;6.704;2023-08-06T15:08:43;15.90;99.90
2861;DHT22;1438;50.922;6.704;2023-08-06T15:11:12;15.80;99.90
2861;DHT22;1438;50.922;6.704;2023-08-06T15:13:38;15.80;99.90
2861;DHT22;1438;50.922;6.704;2023-08-06T15:16:04;15.90;99.90
2861;DHT22;1438;50.922;6.704;2023-08-06T15:18:29;15.80;99.90
2861;DHT22;1438;50.922;6.704;2023-08-06T15:20:55;15.80;99.90
2861;DHT22;1438;50.922;6.704;2023-08-06T15:23:20;15.90;99.90
2861;DHT22;1438;50.922;6.704;2023-08-06T15:25:46;15.90;99.90
2861;DHT22;1438;50.922;6.704;2023-08-06T15:28:12;15.90;99.90
2861;DHT22;1438;50.922;6.704;2023-08-06T15:30:37;15.90;99.90
2861;DHT22;1438;50.922;6.704;2023-08-06T15:33:03;15.90;99.90
2861;DHT22;1438;50.922;6.704;2023-08-06T15:35:29;15.90;99.90
2861;DHT22;1438;50.922;6.704;2023-08-06T15:37:54;15.90;99.90
2861;DHT22;1438;50.922;6.704;2023-08-06T15:40:20;16.00;99.90
2861;DHT22;1438;50.922;6.704;2023-08-06T15:42:45;15.90;99.90
2861;DHT22;1438;50.922;6.704;2023-08-06T15:45:11;16.00;99.90
2861;DHT22;1438;50.922;6.704;2023-08-06T15:47:36;16.00;99.90
2861;DHT22;1438;50.922;6.704;2023-08-06T15:50:09;16.00;99.90
2861;DHT22;1438;50.922;6.704;2023-08-06T15:52:35;16.00;99.90
2861;DHT22;1438;50.922;6.704;2023-08-06T15:55:02;15.90;99.90
2861;DHT22;1438;50.922;6.704;2023-08-06T15:57:34;15.80;99.90
2861;DHT22;1438;50.922;6.704;2023-08-06T16:00:00;15.70;99.90
2861;DHT22;1438;50.922;6.704;2023-08-06T16:02:26;15.70;99.90